createdAt,value
2018-07-19T00:01:05.849Z,101878.03
2018-07-19T00:04:08.028Z,101877.42
2018-07-19T00:07:10.023Z,101873.18
2018-07-19T00:10:12.112Z,101876.35
2018-07-19T00:13:14.300Z,101879.27
2018-07-19T00:16:16.340Z,101883.45
2018-07-19T00:19:18.336Z,101886.52
2018-07-19T00:22:21.484Z,101886.28
2018-07-19T00:25:23.634Z,101884.79
2018-07-19T00:28:25.735Z,101890.24
2018-07-19T00:31:27.836Z,101890.08
2018-07-19T00:34:29.990Z,101895.96
2018-07-19T00:37:32.087Z,101897.96
2018-07-19T00:40:34.152Z,101898.67
2018-07-19T00:43:36.557Z,101902.80
2018-07-19T00:46:38.708Z,101897.94
2018-07-19T00:49:40.767Z,101906.37
2018-07-19T00:52:42.727Z,101903.91
2018-07-19T00:55:44.894Z,101911.35
2018-07-19T00:58:46.956Z,101910.85
2018-07-19T01:01:49.134Z,101909.37
2018-07-19T01:04:51.244Z,101912.99
2018-07-19T01:07:54.698Z,101910.53
2018-07-19T01:10:56.878Z,101906.65
2018-07-19T01:13:58.929Z,101913.40
2018-07-19T01:17:01.024Z,101907.77
2018-07-19T01:20:03.334Z,101912.61
2018-07-19T01:23:05.350Z,101904.53
2018-07-19T01:26:07.427Z,101909.71
2018-07-19T01:29:10.721Z,101911.69
2018-07-19T01:32:12.796Z,101915.90
2018-07-19T01:35:14.861Z,101909.62
2018-07-19T01:38:17.025Z,101915.08
2018-07-19T01:41:30.499Z,101913.08
2018-07-19T01:44:32.544Z,101912.86
2018-07-19T01:47:34.740Z,101914.98
2018-07-19T01:50:36.892Z,101916.14
2018-07-19T01:53:38.934Z,101915.64
2018-07-19T01:56:42.002Z,101914.03
2018-07-19T01:59:44.774Z,101918.69
2018-07-19T02:02:46.897Z,101911.93
2018-07-19T02:05:48.962Z,101916.54
2018-07-19T02:08:52.057Z,101916.30
2018-07-19T02:11:55.258Z,101917.86
2018-07-19T02:14:57.326Z,101913.94
2018-07-19T02:18:01.454Z,101922.01
2018-07-19T02:21:03.513Z,101916.27
2018-07-19T02:24:05.595Z,101921.37
2018-07-19T02:27:07.580Z,101919.84
2018-07-19T02:30:09.750Z,101919.04
2018-07-19T02:33:11.788Z,101919.06
2018-07-19T02:36:13.845Z,101918.80
2018-07-19T02:39:15.945Z,101919.97
2018-07-19T02:42:18.020Z,101922.12
2018-07-19T02:45:20.069Z,101915.44
2018-07-19T02:48:22.236Z,101914.59
2018-07-19T02:51:24.843Z,101920.27
2018-07-19T02:54:26.903Z,101918.53
2018-07-19T02:57:29.320Z,101924.18
2018-07-19T03:00:31.454Z,101927.47
2018-07-19T03:03:33.671Z,101927.42
2018-07-19T03:06:35.868Z,101926.40
2018-07-19T03:09:37.956Z,101925.48
2018-07-19T03:12:41.064Z,101926.16
2018-07-19T03:15:43.175Z,101926.49
2018-07-19T03:18:45.520Z,101924.65
2018-07-19T03:21:47.672Z,101924.67
2018-07-19T03:24:49.724Z,101921.21
2018-07-19T03:27:51.883Z,101922.52
2018-07-19T03:30:55.394Z,101918.49
2018-07-19T03:33:57.364Z,101918.78
2018-07-19T03:36:59.472Z,101919.31
2018-07-19T03:40:01.648Z,101920.68
2018-07-19T03:43:03.654Z,101918.70
2018-07-19T03:46:05.752Z,101920.77
2018-07-19T03:49:07.845Z,101924.18
2018-07-19T03:52:09.885Z,101924.29
2018-07-19T03:55:15.557Z,101921.08
2018-07-19T03:58:17.600Z,101916.35
2018-07-19T04:01:19.692Z,101919.99
2018-07-19T04:04:21.656Z,101924.12
2018-07-19T04:07:24.966Z,101927.40
2018-07-19T04:10:27.026Z,101924.69
2018-07-19T04:13:29.158Z,101928.86
2018-07-19T04:16:31.256Z,101934.89
2018-07-19T04:19:33.250Z,101939.83
2018-07-19T04:22:36.482Z,101940.46
2018-07-19T04:25:38.620Z,101935.59
2018-07-19T04:28:40.795Z,101939.71
2018-07-19T04:31:42.897Z,101941.27
2018-07-19T04:34:46.066Z,101935.33
2018-07-19T04:37:48.212Z,101937.70
2018-07-19T04:40:51.497Z,101937.78
2018-07-19T04:43:54.711Z,101939.95
2018-07-19T04:46:58.756Z,101941.90
2018-07-19T04:50:00.777Z,101937.93
2018-07-19T04:53:02.847Z,101937.31
2018-07-19T04:56:04.999Z,101943.17
2018-07-19T04:59:07.094Z,101938.60
2018-07-19T05:02:09.192Z,101938.34
2018-07-19T05:05:11.344Z,101934.79
2018-07-19T05:08:13.430Z,101940.99
2018-07-19T05:11:15.540Z,101936.85
2018-07-19T05:14:17.654Z,101937.68
2018-07-19T05:17:19.687Z,101937.70
2018-07-19T05:20:21.820Z,101930.36
2018-07-19T05:23:24.937Z,101930.42
2018-07-19T05:26:27.152Z,101936.45
2018-07-19T05:29:29.172Z,101941.38
2018-07-19T05:32:31.343Z,101934.49
2018-07-19T05:35:33.464Z,101936.67
2018-07-19T05:38:35.434Z,101941.09
2018-07-19T05:41:37.763Z,101937.56
2018-07-19T05:44:39.893Z,101939.50
2018-07-19T05:47:41.844Z,101932.16
2018-07-19T05:50:43.967Z,101933.74
2018-07-19T05:53:46.131Z,101935.84
2018-07-19T05:56:48.465Z,101934.52
2018-07-19T05:59:50.544Z,101934.42
2018-07-19T06:02:52.911Z,101937.58
2018-07-19T06:05:55.702Z,101941.13
2018-07-19T06:08:57.892Z,101940.87
2018-07-19T06:12:00.035Z,101947.32
2018-07-19T06:15:05.126Z,101947.23
2018-07-19T06:18:07.116Z,101950.26
2018-07-19T06:21:09.198Z,101947.64
2018-07-19T06:24:11.379Z,101946.23
2018-07-19T06:27:13.756Z,101939.33
2018-07-19T06:30:15.949Z,101942.86
2018-07-19T06:33:18.005Z,101945.22
2018-07-19T06:36:20.176Z,101938.79
2018-07-19T06:39:22.225Z,101937.43
2018-07-19T06:42:24.390Z,101943.80
2018-07-19T06:45:26.512Z,101939.92
2018-07-19T06:48:28.541Z,101942.16
2018-07-19T06:51:30.719Z,101944.38
2018-07-19T06:54:32.782Z,101942.05
2018-07-19T06:57:36.223Z,101945.44
2018-07-19T07:00:38.392Z,101941.68
2018-07-19T07:03:40.552Z,101947.57
2018-07-19T07:06:42.552Z,101944.86
2018-07-19T07:09:44.697Z,101944.31
2018-07-19T07:12:46.752Z,101945.11
2018-07-19T07:15:48.827Z,101948.27
2018-07-19T07:18:51.087Z,101947.13
2018-07-19T07:21:53.223Z,101949.20
2018-07-19T07:24:56.395Z,101948.66
2018-07-19T07:27:58.426Z,101950.09
2018-07-19T07:31:00.612Z,101950.72
2018-07-19T07:34:02.799Z,101945.88
2018-07-19T07:37:05.103Z,101946.00
2018-07-19T07:40:07.395Z,101945.59
2018-07-19T07:43:10.181Z,101942.09
2018-07-19T07:46:12.272Z,101942.72
2018-07-19T07:49:14.254Z,101936.00
2018-07-19T07:52:16.307Z,101939.59
2018-07-19T07:55:18.403Z,101943.42
2018-07-19T07:58:20.375Z,101939.02
2018-07-19T08:01:22.428Z,101935.33
2018-07-19T08:04:24.621Z,101932.07
2018-07-19T08:07:27.807Z,101927.88
2018-07-19T08:10:30.034Z,101927.28
2018-07-19T08:13:32.115Z,101923.44
2018-07-19T08:16:34.198Z,101922.10
2018-07-19T08:19:36.229Z,101921.08
2018-07-19T08:22:38.219Z,101915.51
2018-07-19T08:25:40.373Z,101912.84
2018-07-19T08:28:42.452Z,101913.18
2018-07-19T08:31:44.431Z,101912.48
2018-07-19T08:34:47.710Z,101912.44
2018-07-19T08:37:49.837Z,101912.71
2018-07-19T08:40:53.948Z,101914.55
2018-07-19T08:43:56.433Z,101907.27
2018-07-19T08:46:58.473Z,101901.99
2018-07-19T08:50:00.560Z,101906.29
2018-07-19T08:53:02.738Z,101901.36
2018-07-19T08:56:04.788Z,101899.10
2018-07-19T08:59:06.857Z,101908.30
2018-07-19T09:02:08.967Z,101903.79
2018-07-19T09:05:11.056Z,101901.51
2018-07-19T09:08:13.172Z,101904.96
2018-07-19T09:11:15.727Z,101907.13
2018-07-19T09:14:17.895Z,101904.20
2018-07-19T09:17:20.005Z,101894.47
2018-07-19T09:20:22.087Z,101891.92
2018-07-19T09:23:24.120Z,101892.55
2018-07-19T09:26:27.068Z,101889.34
2018-07-19T09:29:28.998Z,101884.87
2018-07-19T09:32:32.149Z,101881.68
2018-07-19T09:35:34.259Z,101885.04
2018-07-19T09:38:36.377Z,101884.54
2018-07-19T09:41:38.543Z,101880.28
2018-07-19T09:44:40.655Z,101871.76
2018-07-19T09:47:44.853Z,101875.28
2018-07-19T09:50:47.100Z,101868.20
2018-07-19T09:53:49.239Z,101870.57
2018-07-19T09:56:51.488Z,101875.44
2018-07-19T09:59:54.575Z,101871.48
2018-07-19T10:02:57.575Z,101870.96
2018-07-19T10:05:59.994Z,101858.87
2018-07-19T10:09:02.051Z,101864.51
2018-07-19T10:12:04.125Z,101862.83
2018-07-19T10:15:06.197Z,101865.70
2018-07-19T10:18:08.353Z,101863.66
2018-07-19T10:21:11.617Z,101863.19
2018-07-19T10:24:16.563Z,101858.79
2018-07-19T10:27:18.664Z,101853.81
2018-07-19T10:30:21.823Z,101850.61
2018-07-19T10:33:24.171Z,101849.50
2018-07-19T10:36:26.895Z,101855.79
2018-07-19T10:39:29.128Z,101843.75
2018-07-19T10:42:31.272Z,101842.61
2018-07-19T10:45:33.352Z,101850.85
2018-07-19T10:48:36.574Z,101842.78
2018-07-19T10:51:38.793Z,101838.90
2018-07-19T10:54:40.845Z,101833.82
2018-07-19T10:57:42.950Z,101830.26
2018-07-19T11:00:45.057Z,101829.23
2018-07-19T11:03:47.157Z,101818.55
2018-07-19T11:06:49.265Z,101822.16
2018-07-19T11:09:51.371Z,101818.68
2018-07-19T11:12:53.548Z,101809.74
2018-07-19T11:15:56.343Z,101813.40
2018-07-19T11:18:58.334Z,101811.21
2018-07-19T11:22:00.346Z,101810.63
2018-07-19T11:25:02.446Z,101802.10
2018-07-19T11:28:04.583Z,101803.04
2018-07-19T11:31:06.936Z,101805.04
2018-07-19T11:34:09.180Z,101801.01
2018-07-19T11:37:11.344Z,101801.51
2018-07-19T11:40:13.667Z,101795.50
2018-07-19T11:43:16.159Z,101794.23
2018-07-19T11:46:18.422Z,101789.41
2018-07-19T11:49:20.692Z,101789.68
2018-07-19T11:52:22.851Z,101791.38
2018-07-19T11:55:25.975Z,101785.52
2018-07-19T11:58:28.185Z,101779.84
2018-07-19T12:01:30.439Z,101774.86
2018-07-19T12:04:32.488Z,101770.60
2018-07-19T12:07:34.499Z,101768.34
2018-07-19T12:10:36.488Z,101762.24
2018-07-19T12:13:38.566Z,101758.65
2018-07-19T12:16:40.666Z,101759.85
2018-07-19T12:19:42.785Z,101752.54
2018-07-19T12:22:44.809Z,101753.34
2018-07-19T12:25:46.959Z,101750.56
2018-07-19T12:28:48.931Z,101743.52
2018-07-19T12:31:51.037Z,101743.31
2018-07-19T12:34:53.143Z,101751.85
2018-07-19T12:37:55.174Z,101745.24
2018-07-19T12:40:58.439Z,101732.76
2018-07-19T12:44:08.975Z,101730.32
2018-07-19T12:47:11.083Z,101719.64
2018-07-19T12:50:13.496Z,101712.40
2018-07-19T12:53:15.607Z,101713.33
2018-07-19T12:56:17.691Z,101714.84
2018-07-19T12:59:19.751Z,101714.96
2018-07-19T13:02:21.932Z,101712.68
2018-07-19T13:05:25.085Z,101710.57
2018-07-19T13:08:28.086Z,101711.52
2018-07-19T13:11:30.244Z,101712.29
2018-07-19T13:14:32.545Z,101711.47
2018-07-19T13:17:34.748Z,101707.10
2018-07-19T13:20:36.794Z,101708.55
2018-07-19T13:23:38.921Z,101698.99
2018-07-19T13:26:40.973Z,101702.52
2018-07-19T13:29:43.023Z,101700.35
2018-07-19T13:32:45.082Z,101702.30
2018-07-19T13:35:47.135Z,101697.50
2018-07-19T13:38:49.103Z,101695.06
2018-07-19T13:41:51.160Z,101698.28
2018-07-19T13:44:53.298Z,101691.08
2018-07-19T13:47:55.626Z,101694.36
2018-07-19T13:50:59.131Z,101686.20
2018-07-19T13:54:15.271Z,101682.21
2018-07-19T13:57:17.438Z,101674.39
2018-07-19T14:00:19.669Z,101678.66
2018-07-19T14:03:22.319Z,101674.51
2018-07-19T14:06:24.938Z,101669.28
2018-07-19T14:09:26.955Z,101657.39
2018-07-19T14:12:30.090Z,101657.66
2018-07-19T14:15:32.270Z,101648.21
2018-07-19T14:18:34.518Z,101648.45
2018-07-19T14:21:36.653Z,101648.83
2018-07-19T14:24:39.008Z,101641.59
2018-07-19T14:27:40.974Z,101643.28
2018-07-19T14:30:43.036Z,101636.77
2018-07-19T14:33:47.132Z,101643.22
2018-07-19T14:36:49.199Z,101639.42
2018-07-19T14:39:51.435Z,101642.10
2018-07-19T14:42:54.308Z,101641.22
2018-07-19T14:45:56.536Z,101639.34
2018-07-19T14:48:59.641Z,101638.97
2018-07-19T14:52:01.828Z,101636.79
2018-07-19T14:55:04.651Z,101637.53
2018-07-19T14:58:07.283Z,101643.98
2018-07-19T15:01:09.417Z,101634.55
2018-07-19T15:04:11.472Z,101626.02
2018-07-19T15:07:13.701Z,101630.13
2018-07-19T15:10:15.828Z,101628.39
2018-07-19T15:13:17.963Z,101625.25
2018-07-19T15:16:20.006Z,101621.97
2018-07-19T15:19:22.081Z,101621.26
2018-07-19T15:22:24.160Z,101613.67
2018-07-19T15:25:26.124Z,101615.01
2018-07-19T15:28:29.347Z,101611.69
2018-07-19T15:31:31.589Z,101608.02
2018-07-19T15:34:33.768Z,101606.47
2018-07-19T15:37:35.862Z,101596.60
2018-07-19T15:40:37.877Z,101596.68
2018-07-19T15:43:40.027Z,101591.10
2018-07-19T15:46:42.212Z,101594.02
2018-07-19T15:49:44.286Z,101601.27
2018-07-19T15:52:46.254Z,101589.65
2018-07-19T15:55:48.348Z,101588.09
2018-07-19T15:58:50.461Z,101591.46
2018-07-19T16:01:52.518Z,101588.27
2018-07-19T16:04:54.707Z,101583.88
2018-07-19T16:07:56.756Z,101583.58
2018-07-19T16:11:00.260Z,101583.48
2018-07-19T16:14:02.561Z,101577.66
2018-07-19T16:17:05.016Z,101582.57
2018-07-19T16:20:07.073Z,101573.86
2018-07-19T16:23:09.292Z,101577.32
2018-07-19T16:26:11.431Z,101568.74
2018-07-19T16:29:13.391Z,101568.63
2018-07-19T16:32:17.526Z,101574.82
2018-07-19T16:35:19.627Z,101569.64
2018-07-19T16:38:21.700Z,101564.51
2018-07-19T16:41:25.920Z,101559.56
2018-07-19T16:44:28.927Z,101564.49
2018-07-19T16:47:31.021Z,101568.33
2018-07-19T16:50:33.293Z,101560.24
2018-07-19T16:53:35.710Z,101554.80
2018-07-19T16:56:37.895Z,101557.69
2018-07-19T16:59:40.058Z,101556.18
2018-07-19T17:02:42.494Z,101556.91
2018-07-19T17:05:45.888Z,101556.31
2018-07-19T17:08:48.337Z,101556.22
2018-07-19T17:11:51.106Z,101549.25
2018-07-19T17:14:53.279Z,101550.15
2018-07-19T17:17:56.739Z,101552.69
2018-07-19T17:21:00.174Z,101547.71
2018-07-19T17:24:03.252Z,101547.28
2018-07-19T17:27:05.405Z,101548.54
2018-07-19T17:30:08.669Z,101557.78
2018-07-19T17:33:10.753Z,101554.37
2018-07-19T17:36:12.951Z,101552.84
2018-07-19T17:39:15.163Z,101549.64
2018-07-19T17:42:17.484Z,101555.86
2018-07-19T17:45:19.727Z,101558.07
2018-07-19T17:48:21.821Z,101554.91
2018-07-19T17:51:23.911Z,101554.25
2018-07-19T17:54:26.101Z,101559.29
2018-07-19T17:57:28.263Z,101556.17
2018-07-19T18:00:30.295Z,101556.43
2018-07-19T18:03:32.947Z,101556.33
2018-07-19T18:06:35.222Z,101561.27
2018-07-19T18:09:37.329Z,101566.96
2018-07-19T18:12:39.593Z,101564.37
2018-07-19T18:15:41.627Z,101566.09
2018-07-19T18:18:43.627Z,101563.56
2018-07-19T18:21:45.732Z,101562.83
2018-07-19T18:24:47.782Z,101563.39
2018-07-19T18:27:49.964Z,101562.24
2018-07-19T18:30:52.027Z,101563.87
2018-07-19T18:33:54.072Z,101568.43
2018-07-19T18:36:56.380Z,101564.81
2018-07-19T18:39:58.528Z,101568.44
2018-07-19T18:43:00.650Z,101563.46
2018-07-19T18:46:04.012Z,101571.83
2018-07-19T18:49:06.196Z,101576.15
2018-07-19T18:52:08.791Z,101571.85
2018-07-19T18:55:10.916Z,101576.20
2018-07-19T18:58:13.055Z,101577.54
2018-07-19T19:01:15.229Z,101576.27
2018-07-19T19:04:17.304Z,101584.05
2018-07-19T19:07:19.616Z,101583.87
2018-07-19T19:10:21.599Z,101586.92
2018-07-19T19:13:23.907Z,101578.15
2018-07-19T19:16:26.144Z,101582.99
2018-07-19T19:19:28.386Z,101585.37
2018-07-19T19:22:30.663Z,101586.19
2018-07-19T19:25:32.812Z,101591.24
2018-07-19T19:28:35.032Z,101595.67
2018-07-19T19:31:37.251Z,101597.26
2018-07-19T19:34:39.432Z,101599.87
2018-07-19T19:37:42.545Z,101598.51
2018-07-19T19:40:44.717Z,101602.01
2018-07-19T19:43:46.805Z,101610.54
2018-07-19T19:46:48.945Z,101613.99
2018-07-19T19:49:50.956Z,101618.85
2018-07-19T19:52:53.127Z,101620.63
2018-07-19T19:55:56.306Z,101622.21
2018-07-19T19:58:58.368Z,101624.90
2018-07-19T20:02:00.420Z,101630.23
2018-07-19T20:05:02.932Z,101630.91
2018-07-19T20:08:05.097Z,101629.39
2018-07-19T20:11:07.195Z,101637.78
2018-07-19T20:14:09.377Z,101629.66
2018-07-19T20:17:11.531Z,101637.44
2018-07-19T20:20:13.524Z,101638.50
2018-07-19T20:23:15.846Z,101641.54
2018-07-19T20:26:18.076Z,101640.72
2018-07-19T20:29:20.180Z,101644.17
2018-07-19T20:32:22.511Z,101640.31
2018-07-19T20:35:24.755Z,101645.60
2018-07-19T20:38:26.920Z,101647.53
2018-07-19T20:41:29.243Z,101648.31
2018-07-19T20:44:31.391Z,101651.64
2018-07-19T20:47:33.751Z,101649.34
2018-07-19T20:50:35.802Z,101650.36
2018-07-19T20:53:38.067Z,101647.00
2018-07-19T20:56:40.138Z,101647.42
2018-07-19T20:59:42.164Z,101644.41
2018-07-19T21:02:44.285Z,101641.16
2018-07-19T21:05:46.431Z,101641.58
2018-07-19T21:08:48.809Z,101641.14
2018-07-19T21:11:50.877Z,101642.82
2018-07-19T21:14:52.937Z,101649.33
2018-07-19T21:17:56.036Z,101648.48
2018-07-19T21:20:58.132Z,101654.12
2018-07-19T21:24:00.275Z,101656.02
2018-07-19T21:27:02.378Z,101657.50
2018-07-19T21:30:05.781Z,101655.19
2018-07-19T21:33:07.799Z,101652.52
2018-07-19T21:36:09.925Z,101652.27
2018-07-19T21:39:12.223Z,101656.16
2018-07-19T21:42:14.336Z,101656.85
2018-07-19T21:45:16.543Z,101657.32
2018-07-19T21:48:18.800Z,101656.29
2018-07-19T21:51:21.151Z,101660.66
2018-07-19T21:54:23.310Z,101655.68
2018-07-19T21:57:25.425Z,101648.03
2018-07-19T22:00:29.756Z,101653.98
2018-07-19T22:03:32.213Z,101658.60
2018-07-19T22:06:36.255Z,101652.82
2018-07-19T22:09:38.428Z,101654.38
2018-07-19T22:12:40.557Z,101654.94
2018-07-19T22:15:42.618Z,101652.20
2018-07-19T22:18:48.032Z,101655.68
2018-07-19T22:21:49.992Z,101661.87
2018-07-19T22:24:52.118Z,101661.00
2018-07-19T22:27:54.291Z,101660.47
2018-07-19T22:30:56.355Z,101657.41
2018-07-19T22:33:58.525Z,101655.28
2018-07-19T22:37:00.579Z,101656.22
2018-07-19T22:40:03.528Z,101657.59
2018-07-19T22:43:06.544Z,101656.56
2018-07-19T22:46:08.780Z,101661.61
2018-07-19T22:49:10.816Z,101660.31
2018-07-19T22:52:12.860Z,101664.46
2018-07-19T22:55:14.991Z,101662.93
2018-07-19T22:58:17.002Z,101668.73
2018-07-19T23:01:19.124Z,101665.97
2018-07-19T23:04:21.156Z,101671.82
2018-07-19T23:07:23.237Z,101667.11
2018-07-19T23:20:42.896Z,101664.52
2018-07-19T23:23:44.942Z,101662.87
2018-07-19T23:33:38.355Z,101663.79
2018-07-19T23:36:45.047Z,101660.53
2018-07-19T23:39:51.319Z,101658.35
2018-07-19T23:42:56.858Z,101659.32
2018-07-19T23:46:06.820Z,101659.18
2018-07-19T23:49:08.885Z,101656.64
2018-07-19T23:52:10.957Z,101655.97
2018-07-19T23:55:13.018Z,101654.71
2018-07-19T23:58:15.148Z,101649.41
